ANA901 RJOH-RJOO
Flight info
| Callsign | ANA901 |
|---|---|
| Flight time | 0h 30m |
| Altitude | 23000 |
| Route | TOZAN Y38 ROKKO |
| Aircraft | A321/M-SDE3FGHIRWY/LB1 |
Departure
| Time | 2026-05-06 14:33 |
|---|---|
| Airport | Yonago Kitaro Airport / JASDF Miho Air Base (RJOH) |
Arrival
| Time | 2026-05-06 15:03 |
|---|---|
| Airport | Osaka Itami International Airport (RJOO) |
| Time | Latitude | Longitude | Altitude | Speed | Heading |
|---|---|---|---|---|---|
| 2026-05-06 14:19 | 35.49985 | 133.24540 | 26 ft | 0 kts | 334° |
| 2026-05-06 14:26 | 35.49973 | 133.24547 | 26 ft | 4 kts | 334° |
| 2026-05-06 14:27 | 35.49949 | 133.24562 | 28 ft | 4 kts | 334° |
| 2026-05-06 14:27 | 35.49925 | 133.24576 | 26 ft | 4 kts | 334° |
| 2026-05-06 14:27 | 35.49904 | 133.24589 | 28 ft | 1 kts | 334° |
| 2026-05-06 14:30 | 35.49913 | 133.24595 | 27 ft | 4 kts | 27° |
| 2026-05-06 14:30 | 35.49939 | 133.24642 | 24 ft | 9 kts | 62° |
| 2026-05-06 14:30 | 35.49943 | 133.24714 | 24 ft | 8 kts | 107° |
| 2026-05-06 14:30 | 35.49901 | 133.24760 | 25 ft | 8 kts | 153° |
| 2026-05-06 14:31 | 35.49888 | 133.24835 | 24 ft | 15 kts | 76° |
| 2026-05-06 14:31 | 35.49935 | 133.24959 | 24 ft | 16 kts | 63° |
| 2026-05-06 14:31 | 35.49929 | 133.25078 | 26 ft | 15 kts | 133° |
| 2026-05-06 14:31 | 35.49834 | 133.25114 | 22 ft | 15 kts | 197° |
| 2026-05-06 14:32 | 35.49778 | 133.25018 | 24 ft | 15 kts | 244° |
| 2026-05-06 14:32 | 35.49674 | 133.24760 | 24 ft | 67 kts | 243° |
| 2026-05-06 14:32 | 35.49364 | 133.23984 | 19 ft | 131 kts | 244° |
| 2026-05-06 14:32 | 35.48919 | 133.22842 | 280 ft | 153 kts | 242° |
| 2026-05-06 14:33 | 35.48321 | 133.21809 | 956 ft | 148 kts | 217° |
| 2026-05-06 14:33 | 35.47371 | 133.21356 | 1564 ft | 150 kts | 184° |
| 2026-05-06 14:33 | 35.46333 | 133.21667 | 1988 ft | 167 kts | 150° |
| 2026-05-06 14:33 | 35.45591 | 133.22882 | 2206 ft | 197 kts | 107° |
| 2026-05-06 14:34 | 35.45756 | 133.24604 | 2403 ft | 225 kts | 63° |
| 2026-05-06 14:34 | 35.46955 | 133.25951 | 2580 ft | 251 kts | 22° |
| 2026-05-06 14:34 | 35.48718 | 133.26483 | 3086 ft | 270 kts | 8° |
| 2026-05-06 14:34 | 35.50527 | 133.27209 | 3939 ft | 278 kts | 28° |
| 2026-05-06 14:35 | 35.51994 | 133.28772 | 4845 ft | 285 kts | 54° |
| 2026-05-06 14:35 | 35.52761 | 133.31010 | 5667 ft | 289 kts | 82° |
| 2026-05-06 14:35 | 35.52635 | 133.33460 | 6547 ft | 290 kts | 105° |
| 2026-05-06 14:35 | 35.52115 | 133.35864 | 7396 ft | 292 kts | 106° |
| 2026-05-06 14:36 | 35.51582 | 133.38285 | 8242 ft | 295 kts | 106° |
| 2026-05-06 14:36 | 35.51046 | 133.40727 | 9087 ft | 298 kts | 106° |
| 2026-05-06 14:36 | 35.50512 | 133.43157 | 9913 ft | 301 kts | 107° |
| 2026-05-06 14:36 | 35.49958 | 133.45684 | 10399 ft | 317 kts | 107° |
| 2026-05-06 14:37 | 35.49364 | 133.48388 | 10613 ft | 340 kts | 107° |
| 2026-05-06 14:37 | 35.48734 | 133.51265 | 10980 ft | 356 kts | 106° |
| 2026-05-06 14:37 | 35.48087 | 133.54226 | 11643 ft | 362 kts | 106° |
| 2026-05-06 14:37 | 35.47434 | 133.57221 | 12366 ft | 365 kts | 106° |
| 2026-05-06 14:38 | 35.46772 | 133.60251 | 13102 ft | 369 kts | 106° |
| 2026-05-06 14:38 | 35.46114 | 133.63266 | 13811 ft | 373 kts | 106° |
| 2026-05-06 14:38 | 35.45439 | 133.66355 | 14450 ft | 377 kts | 106° |
| 2026-05-06 14:38 | 35.44753 | 133.69483 | 15081 ft | 382 kts | 105° |
| 2026-05-06 14:39 | 35.44059 | 133.72642 | 15685 ft | 386 kts | 105° |
| 2026-05-06 14:39 | 35.43356 | 133.75833 | 16306 ft | 390 kts | 105° |
| 2026-05-06 14:39 | 35.42642 | 133.79067 | 16916 ft | 395 kts | 105° |
| 2026-05-06 14:39 | 35.41921 | 133.82333 | 17504 ft | 399 kts | 105° |
| 2026-05-06 14:40 | 35.41192 | 133.85631 | 18067 ft | 404 kts | 105° |
| 2026-05-06 14:40 | 35.40451 | 133.88981 | 18535 ft | 411 kts | 105° |
| 2026-05-06 14:40 | 35.39698 | 133.92379 | 19033 ft | 414 kts | 105° |
| 2026-05-06 14:40 | 35.38950 | 133.95748 | 19551 ft | 417 kts | 105° |
| 2026-05-06 14:41 | 35.38186 | 133.99188 | 20051 ft | 420 kts | 105° |
| 2026-05-06 14:41 | 35.37413 | 134.02658 | 20525 ft | 424 kts | 105° |
| 2026-05-06 14:41 | 35.36633 | 134.06152 | 21007 ft | 427 kts | 105° |
| 2026-05-06 14:41 | 35.35848 | 134.09678 | 21456 ft | 431 kts | 105° |
| 2026-05-06 14:42 | 35.35052 | 134.13237 | 21903 ft | 435 kts | 105° |
| 2026-05-06 14:42 | 35.34248 | 134.16820 | 22349 ft | 439 kts | 105° |
| 2026-05-06 14:42 | 35.33432 | 134.20445 | 22797 ft | 443 kts | 105° |
| 2026-05-06 14:42 | 35.32619 | 134.24048 | 23054 ft | 446 kts | 105° |
| 2026-05-06 14:43 | 35.31793 | 134.27709 | 23109 ft | 447 kts | 105° |
| 2026-05-06 14:43 | 35.30965 | 134.31375 | 23110 ft | 447 kts | 105° |
| 2026-05-06 14:43 | 35.30139 | 134.35040 | 23116 ft | 447 kts | 105° |
| 2026-05-06 14:43 | 35.29313 | 134.38703 | 23120 ft | 447 kts | 105° |
| 2026-05-06 14:44 | 35.28483 | 134.42369 | 23127 ft | 447 kts | 105° |
| 2026-05-06 14:44 | 35.27652 | 134.46027 | 23123 ft | 445 kts | 105° |
| 2026-05-06 14:44 | 35.26830 | 134.49678 | 23133 ft | 444 kts | 104° |
| 2026-05-06 14:45 | 35.25397 | 134.57024 | 23123 ft | 444 kts | 102° |
| 2026-05-06 14:45 | 35.24756 | 134.60665 | 23122 ft | 444 kts | 102° |
| 2026-05-06 14:45 | 35.24111 | 134.64359 | 23120 ft | 444 kts | 102° |
| 2026-05-06 14:45 | 35.23456 | 134.68049 | 23133 ft | 444 kts | 102° |
| 2026-05-06 14:46 | 35.22786 | 134.71726 | 23136 ft | 443 kts | 102° |
| 2026-05-06 14:46 | 35.22097 | 134.75403 | 23128 ft | 443 kts | 103° |
| 2026-05-06 14:46 | 35.21402 | 134.79074 | 23126 ft | 443 kts | 103° |
| 2026-05-06 14:46 | 35.20705 | 134.82744 | 23128 ft | 443 kts | 103° |
| 2026-05-06 14:47 | 35.20007 | 134.86411 | 23127 ft | 443 kts | 103° |
| 2026-05-06 14:47 | 35.19320 | 134.90028 | 23123 ft | 443 kts | 103° |
| 2026-05-06 14:47 | 35.18624 | 134.93696 | 23131 ft | 443 kts | 103° |
| 2026-05-06 14:47 | 35.17928 | 134.97360 | 22910 ft | 442 kts | 103° |
| 2026-05-06 14:48 | 35.17230 | 135.01039 | 21989 ft | 445 kts | 103° |
| 2026-05-06 14:48 | 35.16543 | 135.04665 | 20813 ft | 434 kts | 103° |
| 2026-05-06 14:48 | 35.15859 | 135.08260 | 20018 ft | 432 kts | 103° |
| 2026-05-06 14:48 | 35.15185 | 135.11789 | 19688 ft | 421 kts | 103° |
| 2026-05-06 14:49 | 35.14526 | 135.15247 | 19177 ft | 415 kts | 103° |
| 2026-05-06 14:49 | 35.13881 | 135.18618 | 18682 ft | 411 kts | 103° |
| 2026-05-06 14:49 | 35.13233 | 135.22006 | 18118 ft | 408 kts | 103° |
| 2026-05-06 14:49 | 35.12574 | 135.25349 | 17600 ft | 402 kts | 106° |
| 2026-05-06 14:50 | 35.11549 | 135.28495 | 17106 ft | 395 kts | 118° |
| 2026-05-06 14:50 | 35.10049 | 135.31267 | 16618 ft | 389 kts | 131° |
| 2026-05-06 14:50 | 35.08161 | 135.33589 | 16135 ft | 383 kts | 142° |
| 2026-05-06 14:50 | 35.06110 | 135.35644 | 15649 ft | 379 kts | 142° |
| 2026-05-06 14:51 | 35.04087 | 135.37676 | 15178 ft | 376 kts | 142° |
| 2026-05-06 14:51 | 35.02102 | 135.39678 | 14706 ft | 373 kts | 142° |
| 2026-05-06 14:51 | 35.00113 | 135.41690 | 14232 ft | 371 kts | 143° |
| 2026-05-06 14:51 | 34.98133 | 135.43697 | 13728 ft | 369 kts | 143° |
| 2026-05-06 14:52 | 34.96166 | 135.45688 | 13154 ft | 367 kts | 143° |
| 2026-05-06 14:52 | 34.94203 | 135.47672 | 12598 ft | 365 kts | 143° |
| 2026-05-06 14:52 | 34.92253 | 135.49634 | 12103 ft | 362 kts | 142° |
| 2026-05-06 14:52 | 34.90321 | 135.51574 | 11601 ft | 358 kts | 142° |
| 2026-05-06 14:53 | 34.88401 | 135.53498 | 11095 ft | 356 kts | 142° |
| 2026-05-06 14:53 | 34.86495 | 135.55409 | 10587 ft | 354 kts | 142° |
| 2026-05-06 14:53 | 34.84629 | 135.57281 | 10443 ft | 341 kts | 142° |
| 2026-05-06 14:53 | 34.82861 | 135.59055 | 10326 ft | 327 kts | 142° |
| 2026-05-06 14:54 | 34.81137 | 135.60785 | 10204 ft | 314 kts | 142° |
| 2026-05-06 14:54 | 34.79493 | 135.62436 | 9994 ft | 302 kts | 142° |
| 2026-05-06 14:54 | 34.77892 | 135.64045 | 9688 ft | 296 kts | 142° |
| 2026-05-06 14:54 | 34.76304 | 135.65635 | 9180 ft | 294 kts | 142° |
| 2026-05-06 14:55 | 34.74729 | 135.67209 | 8693 ft | 293 kts | 142° |
| 2026-05-06 14:55 | 34.73161 | 135.68773 | 8199 ft | 291 kts | 142° |
| 2026-05-06 14:55 | 34.71603 | 135.70325 | 7726 ft | 288 kts | 142° |
| 2026-05-06 14:55 | 34.70083 | 135.71836 | 7265 ft | 286 kts | 142° |
| 2026-05-06 14:56 | 34.68553 | 135.73350 | 6838 ft | 282 kts | 144° |
| 2026-05-06 14:56 | 34.66820 | 135.74395 | 6351 ft | 276 kts | 168° |
| 2026-05-06 14:56 | 34.64931 | 135.74487 | 5860 ft | 271 kts | 192° |
| 2026-05-06 14:56 | 34.63245 | 135.73655 | 5711 ft | 255 kts | 214° |
| 2026-05-06 14:57 | 34.61880 | 135.72386 | 5602 ft | 240 kts | 218° |
| 2026-05-06 14:57 | 34.60631 | 135.71114 | 5297 ft | 234 kts | 229° |
| 2026-05-06 14:57 | 34.59854 | 135.69382 | 5009 ft | 234 kts | 255° |
| 2026-05-06 14:57 | 34.59772 | 135.67447 | 4839 ft | 230 kts | 279° |
| 2026-05-06 14:58 | 34.60342 | 135.65684 | 4608 ft | 229 kts | 303° |
| 2026-05-06 14:58 | 34.61417 | 135.64255 | 4326 ft | 230 kts | 314° |
| 2026-05-06 14:58 | 34.62555 | 135.62894 | 4030 ft | 230 kts | 314° |
| 2026-05-06 14:58 | 34.63695 | 135.61524 | 3724 ft | 231 kts | 313° |
| 2026-05-06 14:59 | 34.64827 | 135.60161 | 3442 ft | 227 kts | 313° |
| 2026-05-06 14:59 | 34.65937 | 135.58823 | 3120 ft | 223 kts | 314° |
| 2026-05-06 14:59 | 34.67025 | 135.57510 | 2827 ft | 218 kts | 314° |
| 2026-05-06 14:59 | 34.68066 | 135.56254 | 2557 ft | 210 kts | 314° |
| 2026-05-06 15:00 | 34.69082 | 135.55028 | 2285 ft | 198 kts | 314° |
| 2026-05-06 15:00 | 34.70013 | 135.53904 | 2034 ft | 181 kts | 314° |
| 2026-05-06 15:00 | 34.70863 | 135.52877 | 1810 ft | 165 kts | 315° |
| 2026-05-06 15:00 | 34.71639 | 135.51940 | 1601 ft | 151 kts | 315° |
| 2026-05-06 15:01 | 34.72367 | 135.51060 | 1416 ft | 145 kts | 315° |
| 2026-05-06 15:01 | 34.73075 | 135.50204 | 1215 ft | 142 kts | 315° |
| 2026-05-06 15:01 | 34.73774 | 135.49359 | 1031 ft | 141 kts | 315° |
| 2026-05-06 15:01 | 34.74468 | 135.48521 | 843 ft | 141 kts | 316° |
| 2026-05-06 15:02 | 34.75153 | 135.47696 | 672 ft | 140 kts | 316° |
| 2026-05-06 15:02 | 34.75845 | 135.46864 | 506 ft | 140 kts | 317° |
| 2026-05-06 15:02 | 34.76533 | 135.46023 | 316 ft | 140 kts | 316° |
| 2026-05-06 15:02 | 34.77225 | 135.45191 | 106 ft | 139 kts | 316° |
| 2026-05-06 15:03 | 34.77887 | 135.44386 | 50 ft | 121 kts | 313° |
| 2026-05-06 15:03 | 34.78275 | 135.43909 | 52 ft | 45 kts | 314° |
| 2026-05-06 15:03 | 34.78501 | 135.43723 | 47 ft | 38 kts | 347° |
| 2026-05-06 15:03 | 34.78697 | 135.43700 | 50 ft | 26 kts | 13° |
| 2026-05-06 15:04 | 34.78827 | 135.43829 | 50 ft | 22 kts | 49° |
| 2026-05-06 15:04 | 34.78879 | 135.43933 | 50 ft | 13 kts | 95° |
| 2026-05-06 15:04 | 34.78832 | 135.44018 | 49 ft | 12 kts | 133° |
| 2026-05-06 15:04 | 34.78776 | 135.44090 | 50 ft | 12 kts | 135° |
| 2026-05-06 15:05 | 34.78719 | 135.44153 | 50 ft | 7 kts | 137° |
| 2026-05-06 15:05 | 34.78709 | 135.44197 | 50 ft | 5 kts | 73° |
| 2026-05-06 15:05 | 34.78728 | 135.44241 | 50 ft | 6 kts | 60° |
| 2026-05-06 15:05 | 34.78744 | 135.44273 | 50 ft | 3 kts | 59° |
| 2026-05-06 15:06 | 34.78748 | 135.44282 | 50 ft | 1 kts | 59° |
| 2026-05-06 15:06 | 34.78749 | 135.44284 | 50 ft | 0 kts | 59° |